Time;durP1;ratioP1;P1;durP2;ratioP2;P2;SDS_P1;SDS_P2;PMS_P1;PMS_P2;Temp;Humidity;BMP_temperature;BMP_pressure;BME280_temperature;BME280_humidity;BME280_pressure;Samples;Min_cycle;Max_cycle;Signal;HPM_P1;HPM_P2
2023/11/12 00:00:39;;;;;;;;;;;14.70;92.90;;;;;;4028361;29;19939;-46
2023/11/12 00:03:21;;;;;;;;;;;14.70;92.90;;;;;;4028477;29;19938;-44
2023/11/12 00:06:02;;;;;;;;;;;14.70;92.90;;;;;;4036334;29;20475;-46
2023/11/12 00:08:43;;;;;;;;;;;14.70;92.90;;;;;;4043589;29;19938;-47
2023/11/12 00:11:25;;;;;;;;;;;14.70;92.90;;;;;;4043147;29;19934;-47
2023/11/12 00:14:06;;;;;;;;;;;14.70;92.90;;;;;;4043331;29;20395;-45
2023/11/12 00:16:48;;;;;;;;;;;14.60;92.90;;;;;;4028251;29;20088;-47
2023/11/12 00:19:32;;;;;;;;;;;14.60;93.00;;;;;;4028144;29;20011;-46
2023/11/12 00:22:13;;;;;;;;;;;14.60;93.10;;;;;;4028290;29;20194;-46
2023/11/12 00:24:53;;;;;;;;;;;14.60;93.10;;;;;;4016489;29;19934;-45
2023/11/12 00:27:34;;;;;;;;;;;14.60;93.10;;;;;;4027741;29;20455;-47
2023/11/12 00:30:15;;;;;;;;;;;14.60;93.10;;;;;;4012898;29;19934;-44
2023/11/12 00:32:58;;;;;;;;;;;14.60;93.10;;;;;;4023337;29;19995;-45
2023/11/12 00:35:39;;;;;;;;;;;14.60;93.10;;;;;;4016048;29;20087;-52
2023/11/12 00:38:20;;;;;;;;;;;14.60;93.10;;;;;;4027728;29;19938;-51
2023/11/12 00:41:01;;;;;;;;;;;14.50;93.00;;;;;;4028101;29;19934;-53
2023/11/12 00:43:41;;;;;;;;;;;14.50;93.00;;;;;;4027448;29;20066;-51
2023/11/12 00:46:22;;;;;;;;;;;14.50;93.40;;;;;;4015987;29;19934;-49
2023/11/12 00:49:04;;;;;;;;;;;14.50;93.00;;;;;;4034448;29;19934;-47
2023/11/12 00:51:45;;;;;;;;;;;14.50;93.00;;;;;;4027573;29;19934;-47
2023/11/12 00:54:26;;;;;;;;;;;14.50;93.00;;;;;;4015882;29;19983;-49
2023/11/12 00:57:07;;;;;;;;;;;14.50;93.00;;;;;;4016240;29;20462;-51
2023/11/12 00:59:48;;;;;;;;;;;14.40;93.00;;;;;;4036954;29;19950;-50
2023/11/12 01:02:29;;;;;;;;;;;14.50;93.00;;;;;;4031158;29;20398;-52
2023/11/12 01:05:11;;;;;;;;;;;14.40;93.40;;;;;;4036795;29;19938;-47
2023/11/12 01:07:52;;;;;;;;;;;14.40;93.00;;;;;;4015747;29;19935;-49
2023/11/12 01:10:33;;;;;;;;;;;14.40;93.00;;;;;;4027339;29;19939;-46
2023/11/12 01:13:14;;;;;;;;;;;14.40;92.90;;;;;;4005060;29;19935;-52
2023/11/12 01:15:56;;;;;;;;;;;14.50;92.70;;;;;;4015782;29;20390;-51
2023/11/12 01:18:40;;;;;;;;;;;14.50;92.50;;;;;;4025207;29;19935;-51
2023/11/12 01:21:22;;;;;;;;;;;14.60;92.40;;;;;;4019258;29;19955;-52
2023/11/12 01:24:04;;;;;;;;;;;14.60;92.30;;;;;;4030865;29;19936;-44
2023/11/12 01:26:45;;;;;;;;;;;14.60;92.20;;;;;;4041918;29;19978;-45
2023/11/12 01:29:25;;;;;;;;;;;14.70;92.10;;;;;;4027109;29;20735;-46
2023/11/12 01:32:06;;;;;;;;;;;14.80;91.90;;;;;;4015316;29;19939;-43
2023/11/12 01:34:47;;;;;;;;;;;14.80;92.30;;;;;;4026643;29;20308;-49
2023/11/12 01:37:29;;;;;;;;;;;14.80;91.80;;;;;;4026845;29;19938;-53
2023/11/12 01:40:11;;;;;;;;;;;14.90;91.70;;;;;;4026840;29;19938;-50
2023/11/12 01:42:53;;;;;;;;;;;14.90;91.70;;;;;;4015507;29;19935;-52
2023/11/12 01:45:34;;;;;;;;;;;14.90;91.60;;;;;;4027003;29;19935;-49
2023/11/12 01:48:15;;;;;;;;;;;14.90;91.50;;;;;;4026662;29;20280;-51
2023/11/12 01:50:57;;;;;;;;;;;14.90;91.90;;;;;;4015660;29;19939;-50
2023/11/12 01:53:40;;;;;;;;;;;14.90;91.50;;;;;;4028063;29;19939;-52
2023/11/12 01:56:22;;;;;;;;;;;14.80;91.50;;;;;;4020809;29;19983;-48
2023/11/12 01:59:03;;;;;;;;;;;14.80;91.60;;;;;;4020668;29;19934;-53
2023/11/12 02:01:44;;;;;;;;;;;14.80;91.70;;;;;;4020677;29;19935;-51
2023/11/12 02:04:26;;;;;;;;;;;14.80;91.60;;;;;;4020246;29;20068;-44
2023/11/12 02:07:06;;;;;;;;;;;14.80;91.60;;;;;;4027664;29;20068;-45
2023/11/12 02:09:54;;;;;;;;;;;14.80;91.60;;;;;;4027365;29;19938;-45
2023/11/12 02:12:37;;;;;;;;;;;14.80;91.70;;;;;;4028482;29;19935;-45
2023/11/12 02:15:17;;;;;;;;;;;14.90;91.70;;;;;;4018114;29;19995;-48
2023/11/12 02:18:00;;;;;;;;;;;15.00;91.60;;;;;;4025946;29;19983;-46
2023/11/12 02:20:45;;;;;;;;;;;15.10;91.40;;;;;;4028979;29;19942;-46
2023/11/12 02:23:25;;;;;;;;;;;15.10;91.40;;;;;;4016748;29;19939;-46
2023/11/12 02:26:08;;;;;;;;;;;15.20;91.70;;;;;;4017309;29;20343;-45
2023/11/12 02:28:48;;;;;;;;;;;15.20;91.30;;;;;;4029700;29;20042;-44
2023/11/12 02:31:29;;;;;;;;;;;15.20;91.30;;;;;;4019114;29;19974;-47
2023/11/12 02:34:11;;;;;;;;;;;15.30;91.30;;;;;;4020352;29;19975;-47
2023/11/12 02:36:52;;;;;;;;;;;15.30;91.10;;;;;;4017145;29;19990;-44
2023/11/12 02:39:33;;;;;;;;;;;15.40;91.00;;;;;;4036570;29;19938;-44
2023/11/12 02:42:16;;;;;;;;;;;15.40;90.90;;;;;;4036201;29;20291;-44
2023/11/12 02:44:57;;;;;;;;;;;15.40;90.90;;;;;;4029477;29;19952;-44
2023/11/12 02:47:38;;;;;;;;;;;15.40;90.90;;;;;;4031710;29;19935;-44
2023/11/12 02:50:27;;;;;;;;;;;15.40;90.80;;;;;;4014593;29;19938;-44
2023/11/12 02:53:10;;;;;;;;;;;15.40;90.90;;;;;;4031540;29;19935;-48
2023/11/12 02:55:50;;;;;;;;;;;15.40;90.80;;;;;;4031934;29;20324;-47
2023/11/12 02:58:32;;;;;;;;;;;15.40;90.70;;;;;;4032309;29;20714;-50
2023/11/12 03:01:13;;;;;;;;;;;15.50;90.60;;;;;;4036237;29;20299;-48
2023/11/12 03:03:54;;;;;;;;;;;15.50;90.60;;;;;;4020407;29;19938;-48
2023/11/12 03:06:36;;;;;;;;;;;15.50;90.50;;;;;;4028618;29;19935;-46
2023/11/12 03:09:16;;;;;;;;;;;15.50;90.60;;;;;;4033163;29;19955;-46
2023/11/12 03:11:57;;;;;;;;;;;15.50;90.60;;;;;;4035475;29;20291;-46
2023/11/12 03:14:39;;;;;;;;;;;15.50;90.60;;;;;;4040599;29;20283;-44
2023/11/12 03:17:20;;;;;;;;;;;15.50;90.50;;;;;;4017562;29;20011;-51
2023/11/12 03:20:04;;;;;;;;;;;15.40;90.80;;;;;;4019201;29;19935;-52
2023/11/12 03:22:46;;;;;;;;;;;15.40;90.50;;;;;;4032857;29;19934;-49
2023/11/12 03:25:27;;;;;;;;;;;15.40;90.50;;;;;;4017840;29;19938;-50
2023/11/12 03:28:08;;;;;;;;;;;15.30;90.50;;;;;;4017462;29;20422;-50
2023/11/12 03:30:50;;;;;;;;;;;15.30;90.60;;;;;;4017075;29;20056;-49
2023/11/12 03:33:31;;;;;;;;;;;15.30;90.70;;;;;;4017960;29;19955;-48
2023/11/12 03:36:15;;;;;;;;;;;15.30;90.70;;;;;;4029380;29;19935;-50
2023/11/12 03:38:55;;;;;;;;;;;15.40;90.60;;;;;;4029042;29;20420;-50
2023/11/12 03:41:36;;;;;;;;;;;15.40;90.90;;;;;;4029120;29;20647;-47
2023/11/12 03:44:18;;;;;;;;;;;15.40;90.50;;;;;;4022463;29;19950;-48
2023/11/12 03:47:01;;;;;;;;;;;15.30;90.50;;;;;;4028319;29;19935;-47
2023/11/12 03:49:42;;;;;;;;;;;15.40;90.90;;;;;;4029087;29;20023;-47
2023/11/12 03:52:22;;;;;;;;;;;15.40;90.50;;;;;;4028171;29;20026;-52
2023/11/12 03:55:06;;;;;;;;;;;15.40;90.50;;;;;;4015730;29;19935;-54
2023/11/12 03:57:47;;;;;;;;;;;15.40;90.50;;;;;;4017060;29;19987;-51
2023/11/12 04:00:28;;;;;;;;;;;15.40;90.40;;;;;;4028573;29;19935;-51
2023/11/12 04:03:10;;;;;;;;;;;15.50;90.40;;;;;;4019925;29;19938;-48
2023/11/12 04:05:52;;;;;;;;;;;15.50;90.30;;;;;;4029894;29;20063;-49
2023/11/12 04:08:33;;;;;;;;;;;15.40;90.30;;;;;;4028949;29;20377;-50
2023/11/12 04:11:13;;;;;;;;;;;15.40;90.30;;;;;;4028583;29;19939;-52
2023/11/12 04:13:54;;;;;;;;;;;15.40;90.30;;;;;;4028575;29;19934;-51
2023/11/12 04:16:35;;;;;;;;;;;15.40;90.30;;;;;;4016871;29;19938;-50
2023/11/12 04:19:17;;;;;;;;;;;15.40;90.30;;;;;;4029911;29;20468;-50
2023/11/12 04:21:58;;;;;;;;;;;15.40;90.20;;;;;;4043647;29;19938;-49
2023/11/12 04:24:39;;;;;;;;;;;15.40;90.20;;;;;;4043650;29;19975;-50
2023/11/12 04:27:19;;;;;;;;;;;15.40;90.20;;;;;;4042339;29;19940;-47
2023/11/12 04:30:00;;;;;;;;;;;15.40;90.10;;;;;;4043573;29;19974;-51
2023/11/12 04:32:41;;;;;;;;;;;15.40;90.50;;;;;;4032269;29;19939;-50
2023/11/12 04:35:26;;;;;;;;;;;15.40;90.20;;;;;;4031295;29;24277;-49
2023/11/12 04:38:07;;;;;;;;;;;15.50;90.20;;;;;;4030882;29;19934;-48
2023/11/12 04:40:48;;;;;;;;;;;15.50;90.10;;;;;;4043521;29;19933;-47
2023/11/12 04:43:29;;;;;;;;;;;15.50;90.10;;;;;;4043647;29;19935;-53
2023/11/12 04:46:11;;;;;;;;;;;15.50;90.10;;;;;;4029037;29;19938;-53
2023/11/12 04:48:52;;;;;;;;;;;15.50;90.00;;;;;;4042572;29;19938;-51
2023/11/12 04:51:34;;;;;;;;;;;15.50;90.00;;;;;;4042758;29;19953;-47
2023/11/12 04:54:15;;;;;;;;;;;15.60;89.80;;;;;;4030320;29;20339;-53
2023/11/12 04:56:56;;;;;;;;;;;15.60;89.60;;;;;;4042429;29;19934;-47
2023/11/12 04:59:40;;;;;;;;;;;15.60;89.70;;;;;;4042617;29;20299;-51
2023/11/12 05:02:21;;;;;;;;;;;15.60;89.50;;;;;;4043160;29;19970;-52
2023/11/12 05:05:02;;;;;;;;;;;15.70;89.20;;;;;;4041296;29;19970;-51
2023/11/12 05:07:44;;;;;;;;;;;15.60;89.30;;;;;;4034576;29;19939;-50
2023/11/12 05:10:26;;;;;;;;;;;15.60;89.30;;;;;;4042993;29;19958;-51
2023/11/12 05:13:22;;;;;;;;;;;15.60;89.40;;;;;;4042500;29;20443;-50
2023/11/12 05:16:03;;;;;;;;;;;15.60;89.30;;;;;;4042208;29;19938;-54
2023/11/12 05:18:44;;;;;;;;;;;15.60;90.00;;;;;;4042508;29;19950;-53
2023/11/12 05:21:25;;;;;;;;;;;15.70;89.40;;;;;;4042371;29;20130;-54
2023/11/12 05:24:08;;;;;;;;;;;15.70;89.30;;;;;;4042861;29;20611;-51
2023/11/12 05:26:48;;;;;;;;;;;15.70;89.40;;;;;;4042676;29;20303;-49
2023/11/12 05:29:30;;;;;;;;;;;15.60;89.40;;;;;;4026740;29;19939;-49
2023/11/12 05:32:10;;;;;;;;;;;15.70;89.40;;;;;;4026756;29;19938;-48
2023/11/12 05:34:51;;;;;;;;;;;15.70;89.30;;;;;;4028164;29;19943;-50
2023/11/12 05:37:32;;;;;;;;;;;15.70;89.30;;;;;;4016013;29;19940;-50
2023/11/12 05:40:14;;;;;;;;;;;15.70;89.00;;;;;;4027122;29;19935;-52
2023/11/12 05:42:56;;;;;;;;;;;15.70;88.10;;;;;;4015649;29;19938;-52
2023/11/12 05:45:37;;;;;;;;;;;15.70;88.10;;;;;;4033313;29;20005;-49
2023/11/12 05:48:17;;;;;;;;;;;15.70;88.30;;;;;;4017660;29;19935;-52
2023/11/12 05:50:59;;;;;;;;;;;15.70;88.50;;;;;;4027039;29;20311;-50
2023/11/12 05:53:41;;;;;;;;;;;15.60;88.60;;;;;;4027018;29;19935;-49
2023/11/12 05:56:23;;;;;;;;;;;15.60;88.90;;;;;;4027900;29;20011;-50
2023/11/12 05:59:04;;;;;;;;;;;15.60;88.90;;;;;;4027310;29;19934;-52
2023/11/12 06:01:44;;;;;;;;;;;15.70;89.00;;;;;;4027044;29;19950;-51
2023/11/12 06:04:25;;;;;;;;;;;15.70;88.70;;;;;;4015953;29;19943;-48
2023/11/12 06:07:06;;;;;;;;;;;15.70;88.70;;;;;;4020123;29;19937;-54
2023/11/12 06:09:47;;;;;;;;;;;15.70;88.60;;;;;;4040282;29;19939;-54
2023/11/12 06:12:30;;;;;;;;;;;15.70;88.50;;;;;;4031210;29;19938;-52
2023/11/12 06:15:11;;;;;;;;;;;15.70;88.70;;;;;;4033421;29;19975;-51
2023/11/12 06:17:52;;;;;;;;;;;15.60;89.30;;;;;;4027284;29;19979;-52
2023/11/12 06:20:33;;;;;;;;;;;15.60;88.50;;;;;;4027024;29;19935;-54
2023/11/12 06:23:13;;;;;;;;;;;15.60;88.60;;;;;;4026584;29;19983;-53
2023/11/12 06:25:54;;;;;;;;;;;15.60;88.70;;;;;;4018226;29;20063;-54
2023/11/12 06:28:37;;;;;;;;;;;15.60;88.70;;;;;;4027069;29;19998;-50
2023/11/12 06:31:17;;;;;;;;;;;15.60;88.70;;;;;;4026608;29;20019;-49
2023/11/12 06:33:58;;;;;;;;;;;15.50;88.60;;;;;;4027383;29;19939;-54
2023/11/12 06:36:39;;;;;;;;;;;15.60;87.20;;;;;;4042448;29;19934;-46
2023/11/12 06:39:20;;;;;;;;;;;15.60;86.70;;;;;;4042747;29;19935;-46
2023/11/12 06:42:01;;;;;;;;;;;15.60;86.60;;;;;;4027613;29;19938;-46
2023/11/12 06:44:44;;;;;;;;;;;15.60;86.60;;;;;;4032983;29;19937;-48
2023/11/12 06:47:24;;;;;;;;;;;15.60;86.60;;;;;;4045369;29;19939;-46
2023/11/12 06:50:06;;;;;;;;;;;15.70;86.40;;;;;;4031286;29;19979;-45
2023/11/12 06:52:47;;;;;;;;;;;15.60;85.90;;;;;;4030625;29;19934;-46
2023/11/12 06:55:29;;;;;;;;;;;15.60;86.00;;;;;;4042338;29;19938;-45
2023/11/12 06:58:10;;;;;;;;;;;15.70;85.90;;;;;;4029228;29;19935;-45
2023/11/12 07:00:52;;;;;;;;;;;15.70;85.80;;;;;;4017069;29;19935;-45
2023/11/12 07:03:33;;;;;;;;;;;15.70;85.50;;;;;;4028588;29;20022;-43
2023/11/12 07:06:17;;;;;;;;;;;15.70;85.30;;;;;;4032926;29;20013;-46
2023/11/12 07:08:58;;;;;;;;;;;15.70;85.50;;;;;;4044760;29;20086;-46
2023/11/12 07:11:39;;;;;;;;;;;15.60;85.60;;;;;;4044333;29;19935;-47
2023/11/12 07:14:20;;;;;;;;;;;15.60;85.60;;;;;;4028877;29;19935;-46
2023/11/12 07:17:02;;;;;;;;;;;15.50;85.70;;;;;;4030576;29;19938;-45
2023/11/12 07:19:44;;;;;;;;;;;15.50;85.90;;;;;;4017350;29;19935;-49
2023/11/12 07:22:25;;;;;;;;;;;15.50;85.70;;;;;;4029212;29;20068;-46
2023/11/12 07:25:08;;;;;;;;;;;15.50;85.40;;;;;;4017768;29;19935;-49
2023/11/12 07:27:51;;;;;;;;;;;15.50;85.70;;;;;;4029134;29;19935;-46
2023/11/12 07:30:32;;;;;;;;;;;15.50;86.10;;;;;;4028626;29;19935;-43
2023/11/12 07:33:14;;;;;;;;;;;15.50;85.10;;;;;;4043051;29;19935;-43
2023/11/12 07:35:55;;;;;;;;;;;15.50;84.50;;;;;;4044504;29;19993;-45
2023/11/12 07:38:37;;;;;;;;;;;15.40;84.10;;;;;;4043698;29;19938;-43
2023/11/12 07:41:18;;;;;;;;;;;15.40;83.10;;;;;;4043948;29;20019;-46
2023/11/12 07:43:59;;;;;;;;;;;15.40;82.60;;;;;;4016354;29;20477;-45
2023/11/12 07:46:40;;;;;;;;;;;15.30;81.80;;;;;;4028476;29;19938;-45
2023/11/12 07:49:23;;;;;;;;;;;15.30;81.80;;;;;;4017243;29;19939;-42
2023/11/12 07:52:04;;;;;;;;;;;15.30;81.50;;;;;;4016563;29;20138;-42
2023/11/12 07:54:45;;;;;;;;;;;15.40;81.10;;;;;;4028629;29;19939;-48
2023/11/12 07:57:26;;;;;;;;;;;15.40;80.60;;;;;;4028651;29;20403;-46
2023/11/12 08:00:07;;;;;;;;;;;15.50;80.10;;;;;;4028443;29;19935;-50
2023/11/12 08:02:51;;;;;;;;;;;15.50;80.50;;;;;;4032243;29;19938;-50
2023/11/12 08:05:33;;;;;;;;;;;15.40;80.50;;;;;;4027940;29;19966;-53
2023/11/12 08:08:14;;;;;;;;;;;15.50;80.60;;;;;;4028051;29;19938;-48
2023/11/12 08:10:56;;;;;;;;;;;15.60;80.40;;;;;;4015902;29;20496;-39
2023/11/12 08:13:36;;;;;;;;;;;15.60;80.20;;;;;;4043441;29;19935;-43
2023/11/12 08:16:17;;;;;;;;;;;15.60;79.90;;;;;;4043233;29;19937;-46
2023/11/12 08:18:58;;;;;;;;;;;15.70;79.70;;;;;;4042890;29;19934;-49
2023/11/12 08:21:41;;;;;;;;;;;15.60;79.50;;;;;;4042965;29;20291;-51
2023/11/12 08:24:22;;;;;;;;;;;15.60;79.30;;;;;;4043307;29;19987;-45
2023/11/12 08:27:04;;;;;;;;;;;15.50;79.50;;;;;;4042884;29;19938;-48
2023/11/12 08:29:45;;;;;;;;;;;15.50;79.60;;;;;;4041055;29;20299;-47
2023/11/12 08:32:25;;;;;;;;;;;15.50;79.60;;;;;;4027534;29;19938;-46
2023/11/12 08:35:06;;;;;;;;;;;15.50;79.50;;;;;;4027376;29;20011;-48
2023/11/12 08:37:49;;;;;;;;;;;15.50;79.30;;;;;;4027582;29;19939;-51
2023/11/12 08:40:30;;;;;;;;;;;15.50;79.30;;;;;;4036021;29;19934;-45
2023/11/12 08:43:10;;;;;;;;;;;15.40;79.20;;;;;;4043305;29;20398;-49
2023/11/12 08:45:51;;;;;;;;;;;15.40;79.50;;;;;;4030944;29;20059;-47
2023/11/12 08:48:34;;;;;;;;;;;15.30;79.60;;;;;;4043038;29;19934;-46
2023/11/12 08:51:15;;;;;;;;;;;15.20;80.00;;;;;;4039051;29;20410;-51
2023/11/12 08:53:57;;;;;;;;;;;15.20;80.10;;;;;;4027311;29;19935;-48
2023/11/12 08:56:38;;;;;;;;;;;15.20;80.00;;;;;;4026870;29;20064;-50
2023/11/12 08:59:19;;;;;;;;;;;15.30;79.90;;;;;;4026666;29;19939;-49
2023/11/12 09:02:00;;;;;;;;;;;15.30;79.80;;;;;;4027085;29;19990;-41
2023/11/12 09:04:41;;;;;;;;;;;15.30;79.60;;;;;;4039459;29;19939;-41
2023/11/12 09:07:22;;;;;;;;;;;15.30;79.70;;;;;;4042349;29;19938;-41
2023/11/12 09:10:05;;;;;;;;;;;15.20;79.30;;;;;;4031238;29;19991;-43
2023/11/12 09:12:46;;;;;;;;;;;15.20;79.30;;;;;;4027054;29;19935;-41
2023/11/12 09:15:27;;;;;;;;;;;15.10;79.30;;;;;;4015763;29;20022;-40
2023/11/12 09:18:09;;;;;;;;;;;15.10;79.70;;;;;;4015714;29;20468;-41
2023/11/12 09:20:49;;;;;;;;;;;15.00;80.10;;;;;;4026696;29;19938;-41
2023/11/12 09:23:30;;;;;;;;;;;14.90;80.20;;;;;;4027073;29;19974;-40
2023/11/12 09:26:18;;;;;;;;;;;14.80;80.30;;;;;;4026291;29;20375;-41
2023/11/12 09:28:59;;;;;;;;;;;14.80;80.50;;;;;;4032469;29;20283;-41
2023/11/12 09:31:40;;;;;;;;;;;14.80;80.80;;;;;;4036272;29;19935;-41
2023/11/12 09:34:21;;;;;;;;;;;14.80;81.00;;;;;;4026718;29;19934;-41
2023/11/12 09:37:03;;;;;;;;;;;14.90;81.40;;;;;;4031574;29;19935;-41
2023/11/12 09:39:45;;;;;;;;;;;15.20;81.10;;;;;;4030169;29;20155;-41
2023/11/12 09:42:28;;;;;;;;;;;15.50;80.10;;;;;;4030671;29;20298;-41
2023/11/12 09:45:10;;;;;;;;;;;16.00;78.80;;;;;;4042185;29;20009;-41
2023/11/12 09:47:57;;;;;;;;;;;16.50;77.00;;;;;;4042421;29;20049;-41
2023/11/12 09:50:39;;;;;;;;;;;16.90;75.10;;;;;;4029848;29;20504;-41
2023/11/12 09:53:20;;;;;;;;;;;17.30;73.30;;;;;;4028988;29;19938;-42
2023/11/12 09:56:08;;;;;;;;;;;17.60;72.10;;;;;;4030219;29;19979;-48
2023/11/12 09:58:50;;;;;;;;;;;17.90;71.00;;;;;;4041687;29;19982;-49
2023/11/12 10:01:32;;;;;;;;;;;18.10;70.40;;;;;;4036829;29;19999;-48
2023/11/12 10:04:15;;;;;;;;;;;18.30;69.60;;;;;;4015297;29;19935;-41
2023/11/12 10:06:57;;;;;;;;;;;18.30;69.20;;;;;;4027141;29;19938;-42
2023/11/12 10:09:38;;;;;;;;;;;18.30;69.60;;;;;;4028541;29;19938;-41
2023/11/12 10:12:19;;;;;;;;;;;18.20;68.40;;;;;;4030366;29;19939;-42
2023/11/12 10:15:02;;;;;;;;;;;18.10;68.40;;;;;;4027403;29;20276;-43
2023/11/12 10:17:46;;;;;;;;;;;18.10;69.30;;;;;;4029336;29;20501;-43
2023/11/12 10:20:27;;;;;;;;;;;18.10;69.00;;;;;;4029476;29;19983;-45
2023/11/12 10:23:19;;;;;;;;;;;18.10;70.30;;;;;;4029409;29;20264;-43
2023/11/12 10:26:14;;;;;;;;;;;18.20;71.10;;;;;;4028367;29;19938;-43
2023/11/12 10:28:55;;;;;;;;;;;18.30;71.40;;;;;;4029447;29;20386;-44
2023/11/12 10:31:39;;;;;;;;;;;18.30;71.70;;;;;;4024821;29;19966;-47
2023/11/12 10:34:22;;;;;;;;;;;18.40;72.00;;;;;;4044995;29;19935;-52
2023/11/12 10:37:04;;;;;;;;;;;18.30;72.40;;;;;;4043795;29;19986;-49
2023/11/12 10:39:45;;;;;;;;;;;18.30;72.90;;;;;;4044796;29;19938;-46
2023/11/12 10:42:26;;;;;;;;;;;18.30;73.30;;;;;;4020821;29;19938;-43
2023/11/12 10:45:08;;;;;;;;;;;18.30;73.00;;;;;;4018783;29;20022;-44
2023/11/12 10:47:52;;;;;;;;;;;18.40;73.10;;;;;;4029835;29;19935;-52
2023/11/12 10:50:34;;;;;;;;;;;18.40;73.90;;;;;;4030296;29;19982;-47
2023/11/12 10:53:15;;;;;;;;;;;18.40;73.00;;;;;;4029556;29;20443;-50
2023/11/12 10:55:56;;;;;;;;;;;18.40;72.80;;;;;;4018216;29;20271;-50
2023/11/12 10:58:37;;;;;;;;;;;18.50;73.00;;;;;;4028733;29;20003;-47
2023/11/12 11:01:19;;;;;;;;;;;18.50;73.00;;;;;;4030241;29;20367;-47
2023/11/12 11:04:01;;;;;;;;;;;18.50;72.70;;;;;;4017072;29;20023;-48
2023/11/12 11:06:42;;;;;;;;;;;18.50;72.80;;;;;;4017864;29;20018;-51
2023/11/12 11:09:23;;;;;;;;;;;18.50;72.90;;;;;;4033173;29;19934;-48
2023/11/12 11:12:04;;;;;;;;;;;18.50;72.60;;;;;;4044821;29;19934;-50
2023/11/12 11:14:46;;;;;;;;;;;18.40;73.10;;;;;;4044402;29;20048;-50
2023/11/12 11:17:37;;;;;;;;;;;18.30;73.10;;;;;;4044974;29;19934;-48
2023/11/12 11:20:19;;;;;;;;;;;18.30;73.80;;;;;;4042039;29;19943;-51
2023/11/12 11:23:15;;;;;;;;;;;18.30;73.30;;;;;;4043720;29;20033;-49
2023/11/12 11:26:11;;;;;;;;;;;18.30;74.50;;;;;;4042507;29;20157;-49
2023/11/12 11:29:09;;;;;;;;;;;18.20;73.60;;;;;;4029779;29;19939;-49
2023/11/12 11:32:08;;;;;;;;;;;18.20;74.20;;;;;;4027712;29;20451;-48
2023/11/12 11:34:49;;;;;;;;;;;18.30;75.40;;;;;;4028157;29;20300;-48
2023/11/12 11:37:45;;;;;;;;;;;18.40;74.20;;;;;;4017175;29;19938;-49
2023/11/12 11:40:29;;;;;;;;;;;18.50;72.80;;;;;;4028242;29;20007;-49
2023/11/12 11:43:31;;;;;;;;;;;18.50;73.20;;;;;;4028668;29;20086;-46
2023/11/12 11:46:12;;;;;;;;;;;18.50;73.50;;;;;;4028075;29;19950;-50
2023/11/12 11:49:12;;;;;;;;;;;18.50;72.80;;;;;;4028401;29;19983;-45
2023/11/12 11:51:53;;;;;;;;;;;18.50;72.40;;;;;;4026943;29;19938;-44
2023/11/12 11:54:34;;;;;;;;;;;18.50;73.80;;;;;;4028382;29;19939;-45
2023/11/12 11:57:19;;;;;;;;;;;18.40;74.60;;;;;;4024059;29;20410;-49
2023/11/12 12:00:00;;;;;;;;;;;18.50;74.10;;;;;;4014030;29;20386;-44
2023/11/12 12:02:44;;;;;;;;;;;18.40;74.40;;;;;;4028037;29;20746;-47
2023/11/12 12:05:28;;;;;;;;;;;18.40;75.00;;;;;;4027613;29;20003;-48
2023/11/12 12:08:10;;;;;;;;;;;18.40;75.10;;;;;;4023590;29;19938;-44
2023/11/12 12:10:51;;;;;;;;;;;18.30;75.30;;;;;;4022675;29;20084;-46
2023/11/12 12:13:33;;;;;;;;;;;18.20;75.70;;;;;;4028331;29;19935;-45
2023/11/12 12:16:14;;;;;;;;;;;18.10;76.40;;;;;;4027738;29;19939;-45
2023/11/12 12:18:56;;;;;;;;;;;18.00;76.60;;;;;;4027196;29;19939;-44
2023/11/12 12:21:44;;;;;;;;;;;17.90;77.10;;;;;;4036208;29;19938;-47
2023/11/12 12:24:25;;;;;;;;;;;17.80;77.50;;;;;;4042794;29;20354;-44
2023/11/12 12:27:09;;;;;;;;;;;17.80;78.70;;;;;;4042971;29;20401;-46
2023/11/12 12:29:52;;;;;;;;;;;17.70;78.30;;;;;;4031447;29;19938;-47
2023/11/12 12:32:36;;;;;;;;;;;17.60;78.70;;;;;;4031059;29;20071;-46
2023/11/12 12:35:21;;;;;;;;;;;17.50;78.90;;;;;;4027465;29;19938;-44
2023/11/12 12:38:06;;;;;;;;;;;17.40;79.20;;;;;;4015941;29;19938;-44
2023/11/12 12:40:50;;;;;;;;;;;17.30;80.00;;;;;;4015502;29;19935;-45
2023/11/12 12:43:45;;;;;;;;;;;17.20;80.60;;;;;;4016271;29;20101;-44
2023/11/12 12:46:41;;;;;;;;;;;17.20;81.30;;;;;;4027396;29;20037;-47
2023/11/12 12:49:33;;;;;;;;;;;17.10;81.80;;;;;;4015208;29;19939;-47
2023/11/12 12:52:20;;;;;;;;;;;17.00;82.40;;;;;;4039657;29;19943;-44
2023/11/12 12:55:00;;;;;;;;;;;17.00;82.90;;;;;;4042993;29;20018;-45
2023/11/12 12:57:41;;;;;;;;;;;16.90;83.10;;;;;;4026619;29;19942;-50
2023/11/12 13:00:22;;;;;;;;;;;16.90;83.00;;;;;;4027675;29;19939;-44
2023/11/12 13:03:08;;;;;;;;;;;16.80;83.00;;;;;;4027281;29;20029;-44
2023/11/12 13:05:51;;;;;;;;;;;16.80;83.30;;;;;;4027340;29;19934;-47
2023/11/12 13:08:33;;;;;;;;;;;16.70;83.40;;;;;;4027301;29;19938;-44
2023/11/12 13:11:16;;;;;;;;;;;16.70;83.40;;;;;;4026581;29;19950;-45
2023/11/12 13:13:57;;;;;;;;;;;16.60;83.40;;;;;;4026756;29;19983;-45
2023/11/12 13:16:39;;;;;;;;;;;16.60;83.50;;;;;;4026612;29;19939;-44
2023/11/12 13:19:23;;;;;;;;;;;16.50;83.50;;;;;;4026640;29;19935;-44
2023/11/12 13:22:06;;;;;;;;;;;16.50;83.80;;;;;;4026356;29;19938;-44
2023/11/12 13:24:48;;;;;;;;;;;16.40;83.60;;;;;;4013776;29;19954;-45
2023/11/12 13:27:30;;;;;;;;;;;16.40;84.00;;;;;;4027080;29;19966;-44
2023/11/12 13:30:11;;;;;;;;;;;16.40;84.20;;;;;;4027435;29;20426;-44
2023/11/12 13:32:53;;;;;;;;;;;16.30;84.30;;;;;;4027465;29;20640;-46
2023/11/12 13:35:34;;;;;;;;;;;16.30;84.50;;;;;;4016068;29;19935;-44
2023/11/12 13:38:18;;;;;;;;;;;16.30;85.50;;;;;;4026755;29;20480;-45
2023/11/12 13:41:00;;;;;;;;;;;16.30;85.60;;;;;;4026572;29;19971;-48
2023/11/12 13:43:41;;;;;;;;;;;16.20;86.50;;;;;;4027345;29;19939;-44
2023/11/12 13:46:22;;;;;;;;;;;16.20;86.80;;;;;;4026366;29;19938;-45
2023/11/12 13:49:05;;;;;;;;;;;16.20;87.30;;;;;;4025938;29;19938;-47
2023/11/12 13:51:46;;;;;;;;;;;16.20;87.60;;;;;;4027095;29;19935;-44
2023/11/12 13:54:29;;;;;;;;;;;16.30;88.00;;;;;;4027030;29;19944;-46
2023/11/12 13:57:12;;;;;;;;;;;16.30;88.50;;;;;;4027135;29;20291;-51
2023/11/12 13:59:54;;;;;;;;;;;16.30;89.60;;;;;;4026514;29;19962;-43
2023/11/12 14:02:35;;;;;;;;;;;16.30;88.80;;;;;;4026457;29;19935;-46
2023/11/12 14:05:16;;;;;;;;;;;16.40;89.10;;;;;;4015227;29;19955;-43
2023/11/12 14:07:59;;;;;;;;;;;16.40;89.20;;;;;;4026712;29;20391;-47
2023/11/12 14:10:44;;;;;;;;;;;16.40;89.30;;;;;;4034931;29;19939;-45
2023/11/12 14:13:24;;;;;;;;;;;16.40;89.30;;;;;;4027893;29;20383;-46
2023/11/12 14:16:10;;;;;;;;;;;16.40;89.60;;;;;;4040309;29;19939;-50
2023/11/12 14:18:53;;;;;;;;;;;16.40;89.80;;;;;;4026014;29;20068;-48
2023/11/12 14:21:35;;;;;;;;;;;16.40;90.00;;;;;;4026982;29;19938;-50
2023/11/12 14:24:16;;;;;;;;;;;16.30;90.00;;;;;;4027155;29;19938;-47
2023/11/12 14:27:01;;;;;;;;;;;16.30;90.00;;;;;;4026376;29;19939;-49
2023/11/12 14:29:42;;;;;;;;;;;16.30;90.00;;;;;;4031385;29;19943;-45
2023/11/12 14:32:22;;;;;;;;;;;16.30;90.10;;;;;;4024932;29;19939;-50
2023/11/12 14:35:03;;;;;;;;;;;16.30;90.10;;;;;;4026935;29;20068;-46
2023/11/12 14:37:47;;;;;;;;;;;16.30;90.10;;;;;;4026758;29;20240;-48
2023/11/12 14:40:27;;;;;;;;;;;16.20;90.50;;;;;;4026869;29;19939;-47
2023/11/12 14:43:10;;;;;;;;;;;16.30;90.20;;;;;;4012007;29;20020;-45
2023/11/12 14:45:52;;;;;;;;;;;16.20;90.20;;;;;;4025469;29;20064;-48
2023/11/12 14:48:33;;;;;;;;;;;16.20;90.20;;;;;;4027043;29;19934;-49
2023/11/12 14:51:14;;;;;;;;;;;16.20;90.20;;;;;;4026724;29;19934;-48
2023/11/12 14:53:58;;;;;;;;;;;16.20;90.20;;;;;;4026862;29;20060;-48
2023/11/12 14:56:43;;;;;;;;;;;16.10;90.20;;;;;;4013367;29;19939;-46
2023/11/12 14:59:25;;;;;;;;;;;16.10;90.20;;;;;;4010909;29;20375;-46
2023/11/12 15:02:08;;;;;;;;;;;16.10;90.20;;;;;;4010682;29;20352;-49
2023/11/12 15:04:48;;;;;;;;;;;16.10;90.20;;;;;;4013676;29;20061;-47
2023/11/12 15:07:30;;;;;;;;;;;16.00;90.20;;;;;;4013667;29;19936;-48
2023/11/12 15:10:11;;;;;;;;;;;16.00;90.20;;;;;;4022332;29;19939;-47
2023/11/12 15:12:51;;;;;;;;;;;16.00;90.20;;;;;;4028916;29;19939;-49
2023/11/12 15:15:34;;;;;;;;;;;15.90;90.20;;;;;;4029707;29;19935;-48
2023/11/12 15:18:15;;;;;;;;;;;15.90;90.20;;;;;;4029377;29;19939;-49
2023/11/12 15:20:56;;;;;;;;;;;15.90;90.20;;;;;;4027192;29;20076;-49
2023/11/12 15:23:37;;;;;;;;;;;15.80;90.20;;;;;;4024093;29;19935;-45
2023/11/12 15:26:17;;;;;;;;;;;15.80;90.60;;;;;;4013598;29;20000;-46
2023/11/12 15:28:58;;;;;;;;;;;15.80;90.30;;;;;;4013357;29;19939;-48
2023/11/12 15:31:42;;;;;;;;;;;15.80;90.30;;;;;;4016050;29;20348;-53
2023/11/12 15:34:23;;;;;;;;;;;15.80;90.20;;;;;;4028517;29;19935;-51
2023/11/12 15:37:04;;;;;;;;;;;15.80;89.50;;;;;;4028727;29;19939;-52
2023/11/12 15:39:45;;;;;;;;;;;15.90;88.60;;;;;;4027748;29;19954;-52
2023/11/12 15:42:26;;;;;;;;;;;16.00;87.90;;;;;;4028577;29;19935;-52